• Join FlightAware (Why Join?)
  • Login
  • US Flag 
05:01PM EDT


 

Airport Tracker/Info


-or-


 

Live Flight TrackerFlight Track Log ✈ C-FTOH ✈ 28-Apr-2013 ✈ CYOW - MDPC / PUJ

Flight Track Log - Related Links

Times and Time Zones

All times are in EDT time to prevent confusion due to time zone crossing. See the C-FTOH flight status page for this flight to view local times or setup timezone preferences in your user account.

Time Position Orientation Groundspeed Altitude Reporting Facility
EDT Latitude Longitude Course Direction KTS MPH feet Rate Location/Type
08:01AM 45.1920 -75.4290 160° South 6,600  Level FlightAware
08:02AM 44.8640 -74.6820 160° South  Level FlightAware Approximate
08:02AM 45.1530 -75.3610 129° Southeast 290 334 8,500  Level FlightAware
08:02AM 45.1350 -75.3290 129° Southeast 295 339 9,300 1,800 Climbing FlightAware
08:03AM 45.0930 -75.2560 129° Southeast 332 382 10,500 1,800 Climbing FlightAware
08:04AM 45.0520 -75.1640 122° Southeast 359 413 11,900 2,280 Climbing FlightAware
08:04AM 45.0180 -75.1140 134° Southeast 357 411 13,400 2,700 Climbing FlightAware
08:05AM 44.9580 -75.0800 158° South 363 418 15,100 2,280 Climbing FlightAware
08:06AM 44.8860 -75.0360 157° South 379 436 16,700 2,100 Climbing FlightAware
08:06AM 44.8300 -75.0020 157° South 391 450 17,900 1,980 Climbing FlightAware
08:07AM 44.7590 -74.9600 157° South 407 468 19,200 1,980 Climbing FlightAware
08:08AM 44.6770 -74.9110 157° South 417 480 20,900 2,040 Climbing FlightAware
08:08AM 44.6070 -74.8700 157° South 420 483 22,300 1,920 Climbing FlightAware
08:09AM 44.5210 -74.8180 157° South 429 494 23,700 1,680 Climbing FlightAware
08:10AM 44.4520 -74.7780 158° South 438 504 24,700 1,440 Climbing FlightAware
08:10AM 44.3970 -74.7450 157° South 437 503 25,400 1,440 Climbing FlightAware
08:11AM 44.2820 -74.6780 157° South 457 526 26,800 1,380 Climbing FlightAware
08:12AM 44.2160 -74.6390 157° South 463 533 27,500 1,260 Climbing FlightAware
08:12AM 44.1440 -74.5970 157° South 469 540 28,300 1,260 Climbing FlightAware
08:13AM 44.0630 -74.5500 157° South 475 547 29,100 1,260 Climbing FlightAware
08:14AM 43.9840 -74.5040 157° South 476 548 30,000 1,380 Climbing FlightAware
08:14AM 43.8940 -74.4520 157° South 473 544 31,100 1,380 Climbing FlightAware
08:15AM 43.7800 -74.3860 157° South 473 544 32,300 1,260 Climbing FlightAware
08:16AM 43.7000 -74.3400 157° South 472 543 33,100 1,080 Climbing FlightAware
08:17AM 43.6280 -74.2990 158° South 472 543 33,800 600 Climbing FlightAware
08:17AM 43.5320 -74.2450 158° South 472 543 34,000 120 Climbing FlightAware
08:18AM 43.4640 -74.2060 157° South 473 544 34,000  Level FlightAware
08:19AM 43.3570 -74.1450 157° South 472 543 34,000  Level FlightAware
08:20AM 43.2780 -74.1000 157° South 470 541 34,000  Level FlightAware
08:20AM 43.1880 -74.0500 158° South 470 541 34,000  Level FlightAware
08:21AM 43.1230 -74.0120 157° South 470 541 34,000  Level FlightAware
08:22AM 43.0550 -73.9720 157° South 470 541 34,000  Level FlightAware
08:22AM 42.9700 -73.9230 157° South 470 541 34,000  Level FlightAware
08:23AM 42.9660 -73.9250 200° South 34,000  Level FlightAware
08:23AM 42.8380 -73.8520 157° South 471 542 34,000  Level FlightAware
08:24AM 42.7690 -73.8130 157° South 471 542 34,000  Level FlightAware
08:25AM 42.8390 -73.8530 337° Northwest 471 542 34,000  Level FlightAware
08:25AM 42.5660 -73.8060 173° South 460 529 34,000  Level FlightAware
08:26AM 42.4940 -73.8060 180° South 460 529 34,000  Level FlightAware
08:27AM 42.4220 -73.8060 180° South 460 529 34,000  Level FlightAware
08:27AM 42.3490 -73.8060 180° South 460 529 34,000  Level FlightAware
08:28AM 42.2220 -73.8130 182° South 463 533 34,000  Level FlightAware
08:28AM 42.1685 -73.8093 177° South 468 539 34,000  Level FlightAware ADS-B
08:29AM 42.1145 -73.7901 165° South 475 547 34,000  Level FlightAware ADS-B
08:29AM 42.0714 -73.7643 156° South 477 549 34,000  Level FlightAware ADS-B
08:30AM 41.9853 -73.7116 156° South 476 548 34,000  Level FlightAware ADS-B
08:30AM 41.9253 -73.6751 156° South 477 549 34,000  Level FlightAware ADS-B
08:31AM 41.8465 -73.6272 156° South 477 549 34,000  Level FlightAware ADS-B
08:32AM 41.7854 -73.5902 156° South 476 548 34,000  Level FlightAware ADS-B
08:32AM 41.7203 -73.5507 156° South 476 548 34,000  Level FlightAware ADS-B
08:33AM 41.6598 -73.5142 156° South 476 548 34,000  Level FlightAware ADS-B
08:33AM 41.5977 -73.4769 156° South 477 549 34,000  Level FlightAware ADS-B
08:34AM 41.5345 -73.4389 156° South 478 550 34,000  Level FlightAware ADS-B
08:34AM 41.4739 -73.4026 156° South 480 552 34,000  Level FlightAware ADS-B
08:35AM 41.4125 -73.3658 156° South 481 554 34,000  Level FlightAware ADS-B
08:35AM 41.3508 -73.3288 156° South 483 556 34,000  Level FlightAware ADS-B
08:36AM 41.2731 -73.2825 156° South 483 556 34,000  Level FlightAware ADS-B
08:36AM 41.2094 -73.2447 156° South 485 558 34,000  Level FlightAware ADS-B
08:37AM 41.1464 -73.2073 156° South 487 560 34,000  Level FlightAware ADS-B
08:37AM 41.0752 -73.1653 156° South 489 563 34,000  Level FlightAware ADS-B
08:38AM 40.9954 -73.1181 156° South 492 566 34,000  Level FlightAware ADS-B
08:39AM 40.9326 -73.0809 156° South 494 568 34,000  Level FlightAware ADS-B
08:39AM 40.8684 -73.0432 156° South 495 570 34,000  Level FlightAware ADS-B
08:40AM 40.8054 -73.0062 156° South 496 571 34,000  Level FlightAware ADS-B
08:40AM 40.7426 -72.9694 156° South 496 571 34,000  Level FlightAware ADS-B
08:41AM 40.6792 -72.9324 156° South 497 572 34,000  Level FlightAware ADS-B
08:41AM 40.6147 -72.8948 156° South 497 572 34,000  Level FlightAware ADS-B
08:42AM 40.5500 -72.8570 156° South 498 573 34,000  Level FlightAware ADS-B
08:42AM 40.4796 -72.8161 156° South 499 574 34,000  Level FlightAware ADS-B
08:43AM 40.4050 -72.7729 156° South 500 575 34,000  Level FlightAware ADS-B
08:43AM 40.3329 -72.7312 156° South 502 578 34,000  Level FlightAware ADS-B
08:44AM 40.2685 -72.6941 156° South 507 583 34,000  Level FlightAware ADS-B
08:44AM 40.1949 -72.6518 156° South 509 586 34,000  Level FlightAware ADS-B
08:45AM 40.1197 -72.6086 156° South 511 588 34,000  Level FlightAware ADS-B
08:45AM 40.0522 -72.5701 156° South 513 590 34,000 60 Level FlightAware ADS-B
08:46AM 39.9822 -72.5302 156° South 514 592 34,100 300 Climbing FlightAware ADS-B
08:46AM 39.9395 -72.5096 160° South 511 588 34,300 540 Climbing FlightAware ADS-B
08:47AM 39.9092 -72.4991 165° South 509 586 34,400 660 Climbing FlightAware ADS-B
08:47AM 39.8793 -72.4915 169° South 507 583 34,600 780 Climbing FlightAware ADS-B
08:47AM 39.8064 -72.4764 171° South 509 586 35,000 360 Climbing FlightAware ADS-B
08:48AM 39.7255 -72.4593 171° South 511 588 35,000  Level FlightAware ADS-B
08:48AM 39.6546 -72.4442 171° South 512 589 35,000  Level FlightAware ADS-B
08:49AM 39.5707 -72.4264 171° South 512 589 35,000  Level FlightAware ADS-B
08:50AM 39.4379 -72.3985 171° South 513 590 35,000  Level FlightAware ADS-B
08:51AM 39.3010 -72.3700 171° South 506 582 35,000  Level FlightAware
08:51AM 39.2607 -72.3616 171° South 516 594 35,000  Level FlightAware ADS-B
08:52AM 39.1891 -72.3468 171° South 516 594 35,000  Level FlightAware ADS-B
08:52AM 39.0988 -72.3282 171° South 517 595 35,000  Level FlightAware ADS-B
08:53AM 39.0252 -72.3128 171° South 517 595 35,000  Level FlightAware ADS-B
08:53AM 38.9485 -72.2968 171° South 517 595 35,000  Level FlightAware ADS-B
08:54AM 38.8637 -72.2792 171° South 517 595 35,000  Level FlightAware ADS-B
08:55AM 38.7657 -72.2589 171° South 517 595 35,000  Level FlightAware ADS-B
08:55AM 38.6927 -72.2441 171° South 517 595 35,000  Level FlightAware ADS-B
08:56AM 38.6186 -72.2289 171° South 518 596 35,000  Level FlightAware ADS-B
08:56AM 38.5314 -72.2110 171° South 518 596 35,000  Level FlightAware ADS-B
08:57AM 38.4477 -72.1939 171° South 517 595 35,000  Level FlightAware ADS-B
08:57AM 38.3722 -72.1785 171° South 516 594 35,000  Level FlightAware ADS-B
08:58AM 38.2876 -72.1614 171° South 517 595 35,000  Level FlightAware ADS-B
08:59AM 38.2151 -72.1467 171° South 515 593 35,000  Level FlightAware ADS-B
08:59AM 38.1483 -72.1431 171° South 520 598 35,000  Level New York Center
09:00AM 38.0069 -72.1167 172° South 520 598 35,000 -60 Level New York Center
09:01AM 37.8653 -72.0825 169° South 520 598 34,900  Descending New York Center
09:02AM 37.7258 -72.0564 172° South 520 598 35,000  Climbing New York Center
09:03AM 37.5950 -72.0250 169° South 512 589 35,000 -60 Level New York Center
09:04AM 37.4556 -71.9964 171° South 500 575 34,900  Descending New York Center
09:05AM 37.2994 -71.9650 171° South 506 582 35,000  Climbing New York Center
09:06AM 37.1744 -71.9317 168° South 512 589 35,000  Level New York Center
09:07AM 37.0392 -71.8933 167° South 512 589 35,000  Level New York Center
09:08AM 36.8978 -71.8547 168° South 513 590 35,000  Level New York Center
09:09AM 36.7625 -71.8164 167° South 513 590 35,000  Level New York Center
09:11AM 36.6037 -71.7737 168° South  Level FlightAware Approximate
09:18AM 35.7594 -71.5497 168° South  Level FlightAware Approximate
09:18AM 35.6333 -71.5333 168° South 511 588 35,000  Level New York Oceanic (ODAPS)
09:19AM 35.6387 -71.5181 168° South  Level FlightAware Approximate
09:20AM 35.5181 -71.4865 168° South  Level FlightAware Approximate
09:21AM 35.3974 -71.4551 168° South  Level FlightAware Approximate
09:22AM 35.2767 -71.4237 168° South  Level FlightAware Approximate
09:23AM 35.1560 -71.3925 168° South  Level FlightAware Approximate
09:24AM 34.8492 -71.3334 168° South 511 588 35,000  Level FlightAware Transoceanic
09:25AM 34.7185 -71.3004 168° South 511 588 35,000  Level FlightAware Transoceanic
09:26AM 34.5877 -71.2676 168° South 511 588 35,000  Level FlightAware Transoceanic
09:27AM 34.4570 -71.2348 168° South 511 588 35,000  Level FlightAware Transoceanic
09:28AM 34.3262 -71.2022 168° South 511 588 35,000  Level FlightAware Transoceanic
09:29AM 34.1955 -71.1696 168° South 511 588 35,000  Level FlightAware Transoceanic
09:30AM 34.0647 -71.1372 168° South 511 588 35,000  Level FlightAware Transoceanic
09:31AM 33.9339 -71.1049 168° South 511 588 35,000  Level FlightAware Transoceanic
09:32AM 33.8031 -71.0726 168° South 511 588 35,000  Level FlightAware Transoceanic
09:33AM 33.6724 -71.0405 168° South 511 588 35,000  Level FlightAware Transoceanic
09:33AM 33.6833 -71.0333 169° South 482 555 35,000  Level New York Oceanic (ODAPS)
09:34AM 33.5415 -71.0084 168° South 511 588 35,000  Level FlightAware Transoceanic
09:35AM 33.4107 -70.9765 168° South 511 588 35,000  Level FlightAware Transoceanic
09:36AM 33.2799 -70.9446 169° South 511 588 35,000  Level FlightAware Transoceanic
09:37AM 33.1491 -70.9128 169° South 511 588 35,000  Level FlightAware Transoceanic
09:38AM 33.0183 -70.8812 169° South 511 588 35,000  Level FlightAware Transoceanic
09:39AM 32.8874 -70.8496 169° South 511 588 35,000  Level FlightAware Transoceanic
09:40AM 32.6332 -70.7819 169° South 482 555 35,000  Level FlightAware Transoceanic
09:41AM 32.5019 -70.7509 169° South 482 555 35,000  Level FlightAware Transoceanic
09:42AM 32.3706 -70.7200 169° South 482 555 35,000  Level FlightAware Transoceanic
09:43AM 32.2392 -70.6892 169° South 482 555 35,000  Level FlightAware Transoceanic
09:44AM 32.1079 -70.6585 169° South 482 555 35,000  Level FlightAware Transoceanic
09:45AM 31.9766 -70.6278 169° South 482 555 35,000  Level FlightAware Transoceanic
09:46AM 31.8452 -70.5973 169° South 482 555 35,000  Level FlightAware Transoceanic
09:47AM 31.7139 -70.5668 169° South 482 555 35,000  Level FlightAware Transoceanic
09:48AM 31.5825 -70.5364 169° South 482 555 35,000  Level FlightAware Transoceanic
09:49AM 31.4512 -70.5061 169° South 482 555 35,000  Level FlightAware Transoceanic
09:50AM 31.3198 -70.4759 169° South 482 555 35,000  Level FlightAware Transoceanic
09:51AM 31.1884 -70.4457 169° South 482 555 35,000  Level FlightAware Transoceanic
09:52AM 31.0570 -70.4157 169° South 482 555 35,000  Level FlightAware Transoceanic
09:53AM 30.9256 -70.3857 169° South 482 555 35,000  Level FlightAware Transoceanic
09:54AM 30.7942 -70.3558 169° South 482 555 35,000  Level FlightAware Transoceanic
09:55AM 30.6628 -70.3260 169° South 482 555 35,000  Level FlightAware Transoceanic
09:56AM 30.5314 -70.2963 169° South 482 555 35,000  Level FlightAware Transoceanic
09:57AM 30.4000 -70.2667 169° South 482 555 35,000  Level FlightAware Transoceanic
09:58AM 30.2731 -70.2375 169° South 482 555 35,000  Level FlightAware Transoceanic
09:59AM 30.1461 -70.2085 169° South 482 555 35,000  Level FlightAware Transoceanic
09:59AM 30.4000 -70.2667 169° South 462 532 35,000  Level New York Oceanic (ODAPS)
10:00AM 30.0192 -70.1795 169° South 482 555 35,000  Level FlightAware Transoceanic
10:01AM 29.8923 -70.1505 169° South 482 555 35,000  Level FlightAware Transoceanic
10:02AM 29.7653 -70.1217 169° South 482 555 35,000  Level FlightAware Transoceanic
10:03AM 29.6383 -70.0929 169° South 482 555 35,000  Level FlightAware Transoceanic
10:04AM 29.5114 -70.0642 169° South 482 555 35,000  Level FlightAware Transoceanic
10:05AM 29.3844 -70.0356 169° South 482 555 35,000  Level FlightAware Transoceanic
10:06AM 29.2574 -70.0070 169° South 462 532 35,000  Level FlightAware Transoceanic
10:07AM 29.1304 -69.9785 169° South 462 532 35,000  Level FlightAware Transoceanic
10:08AM 29.0035 -69.9501 169° South 462 532 35,000  Level FlightAware Transoceanic
10:09AM 28.8765 -69.9218 169° South 462 532 35,000  Level FlightAware Transoceanic
10:10AM 28.7495 -69.8935 169° South 462 532 35,000  Level FlightAware Transoceanic
10:11AM 28.6224 -69.8653 169° South 462 532 35,000  Level FlightAware Transoceanic
10:12AM 28.4954 -69.8371 169° South 462 532 35,000  Level FlightAware Transoceanic
10:13AM 28.3684 -69.8091 169° South 462 532 35,000  Level FlightAware Transoceanic
10:14AM 28.2414 -69.7810 169° South 462 532 35,000  Level FlightAware Transoceanic
10:15AM 28.1144 -69.7531 169° South 462 532 35,000  Level FlightAware Transoceanic
10:16AM 27.9873 -69.7252 169° South 462 532 35,000  Level FlightAware Transoceanic
10:17AM 27.8603 -69.6974 169° South 462 532 35,000  Level FlightAware Transoceanic
10:18AM 27.7332 -69.6697 169° South 462 532 35,000  Level FlightAware Transoceanic
10:19AM 27.6062 -69.6420 169° South 462 532 35,000  Level FlightAware Transoceanic
10:20AM 27.4791 -69.6144 169° South 462 532 35,000  Level FlightAware Transoceanic
10:21AM 27.3521 -69.5868 169° South 462 532 35,000  Level FlightAware Transoceanic
10:22AM 27.2250 -69.5593 169° South 462 532 35,000  Level FlightAware Transoceanic
10:23AM 27.0979 -69.5319 169° South 462 532 35,000  Level FlightAware Transoceanic
10:24AM 26.9708 -69.5045 169° South 462 532 35,000  Level FlightAware Transoceanic
10:25AM 26.8438 -69.4772 169° South 462 532 35,000  Level FlightAware Transoceanic
10:26AM 26.7167 -69.4500 170° South 462 532 35,000  Level FlightAware Transoceanic
10:27AM 26.5941 -69.4247 170° South 462 532 35,000  Level FlightAware Transoceanic
10:27AM 26.7167 -69.4500 170° South 449 517 35,000  Level New York Oceanic (ODAPS)
10:28AM 26.4715 -69.3994 170° South 462 532 35,000  Level FlightAware Transoceanic
10:29AM 26.3489 -69.3741 170° South 462 532 35,000  Level FlightAware Transoceanic
10:30AM 26.2263 -69.3490 170° South 462 532 35,000  Level FlightAware Transoceanic
10:31AM 26.1037 -69.3238 170° South 462 532 35,000  Level FlightAware Transoceanic
10:32AM 25.9811 -69.2988 170° South 462 532 35,000  Level FlightAware Transoceanic
10:33AM 25.8584 -69.2737 170° South 449 517 35,000  Level FlightAware Transoceanic
10:34AM 25.7358 -69.2488 170° South 449 517 35,000  Level FlightAware Transoceanic
10:35AM 25.6132 -69.2238 170° South 449 517 35,000  Level FlightAware Transoceanic
10:36AM 25.4906 -69.1990 170° South 449 517 35,000  Level FlightAware Transoceanic
10:37AM 25.3679 -69.1741 170° South 449 517 35,000  Level FlightAware Transoceanic
10:38AM 25.2453 -69.1494 170° South 449 517 35,000  Level FlightAware Transoceanic
10:39AM 25.1227 -69.1247 170° South 449 517 35,000  Level FlightAware Transoceanic
10:39AM 25.0419 -69.1086 167° South 447 514 35,000  Level Miami Center
10:40AM 25.0000 -69.1000 167° South 449 517 35,000  Level FlightAware Transoceanic
10:40AM 24.9150 -69.0731 166° South 455 524 35,000  Level Miami Center
10:41AM 24.8796 -69.0700 167° South 449 517 35,000  Level FlightAware Transoceanic
10:41AM 24.7922 -69.0422 167° South 455 524 35,000  Level Miami Center
10:42AM 24.7592 -69.0401 167° South 449 517 35,000  Level FlightAware Transoceanic
10:42AM 24.6653 -69.0069 166° South 460 529 35,000  Level Miami Center
10:43AM 24.6388 -69.0103 167° South 449 517 35,000  Level FlightAware Transoceanic
10:43AM 24.5431 -68.9803 169° South 455 524 35,000  Level Miami Center
10:44AM 24.5184 -68.9805 167° South 449 517 35,000  Level FlightAware Transoceanic
10:44AM 24.4331 -68.9556 168° South 450 518 35,000  Level Miami Center
10:45AM 24.3980 -68.9508 167° South 449 517 35,000  Level FlightAware Transoceanic
10:45AM 24.3150 -68.9289 168° South 450 518 35,000  Level Miami Center
10:46AM 24.1878 -68.8917 165° South 455 524 35,000  Level Miami Center
10:47AM 24.0653 -68.8608 167° South 455 524 35,000  Level Miami Center
10:48AM 23.9428 -68.8322 168° South 455 524 35,000  Level Miami Center
10:49AM 23.8181 -68.8017 167° South 455 524 35,000  Level Miami Center
10:50AM 23.6978 -68.7708 167° South 455 524 35,000  Level Miami Center
10:51AM 23.5772 -68.7422 168° South 455 524 35,000  Level Miami Center
10:52AM 23.4569 -68.7139 168° South 454 522 35,000  Level Miami Center
10:53AM 23.3342 -68.6833 167° South 454 522 35,000  Level Miami Center
10:54AM 23.2183 -68.6614 170° South 446 513 35,000  Level Miami Center
10:55AM 23.0914 -68.6267 166° South 453 521 35,000  Level Miami Center
10:56AM 22.9733 -68.5983 168° South 453 521 35,000  Level Miami Center
10:57AM 22.8550 -68.5722 169° South 453 521 35,000  Level Miami Center
10:58AM 22.7261 -68.5400 167° South 453 521 35,000  Level Miami Center
10:59AM 22.6103 -68.5158 169° South 453 521 35,000  Level Miami Center
11:00AM 22.4856 -68.4858 167° South 453 521 35,000  Level Miami Center
11:01AM 22.3631 -68.4556 167° South 453 521 35,000  Level Miami Center
11:02AM 22.2406 -68.4253 167° South 448 516 35,000  Level Miami Center
11:03AM 22.1183 -68.3972 168° South 453 521 35,000  Level Miami Center
11:04AM 21.9939 -68.3697 168° South 453 521 35,000  Level Miami Center
11:05AM 21.8692 -68.3397 167° South 453 521 35,000  Level Miami Center
11:06AM 21.7511 -68.3117 168° South 450 518 35,000  Level Miami Center
11:07AM 21.6331 -68.2858 169° South 439 505 35,000  Level Miami Center
11:08AM 21.5128 -68.2578 168° South 444 511 35,000  Level Miami Center
11:09AM 21.3903 -68.2300 168° South 439 505 35,000  Level Miami Center
11:15AM 20.7260 -68.1050 168° South 420 483 35,000  Level FlightAware
11:15AM 20.6640 -68.1270 198° South 421 484 35,000  Level FlightAware
11:16AM 20.5910 -68.1520 198° South 421 484 35,000  Level FlightAware
11:17AM 20.4840 -68.1920 199° South 423 487 35,000 -300 Level FlightAware
11:18AM 20.4110 -68.2190 199° South 422 486 34,600 -420 Descending FlightAware
11:18AM 20.3510 -68.2410 199° South 423 487 34,500 -120 Descending FlightAware
11:19AM 20.2720 -68.2700 199° South 423 487 34,500  Level FlightAware
11:20AM 20.2090 -68.2930 199° South 423 487 34,500  Level FlightAware
11:20AM 20.1460 -68.3160 199° South 423 487 34,500 -4,920 Level FlightAware
11:21AM 20.0390 -68.3540 198° South 399 459 28,000 -5,700 Descending FlightAware
11:22AM 19.9620 -68.3820 199° South 391 450 26,500 -1,020 Descending FlightAware
11:22AM 19.8950 -68.4050 198° South 391 450 26,500  Level FlightAware
11:23AM 19.8370 -68.4250 198° South 391 450 26,500  Level FlightAware
11:24AM 19.7780 -68.4450 198° South 391 450 26,500  Level FlightAware
11:24AM 19.7200 -68.4660 199° South 391 450 26,500  Level FlightAware
11:25AM 19.6610 -68.4860 198° South 391 450 26,500 -4,980 Level FlightAware
11:26AM 19.5081 -68.5531 198° South 375 432 18,100 -4,740 Descending Miami Center
11:27AM 19.4244 -68.5844 199° South 375 432 16,900 -1,200 Descending Miami Center
11:30AM 19.2670 -68.5668 163° South  Level FlightAware Approximate
11:37AM 18.5674 -68.3634 155° Southeast  Level Estimated
11:38AM 18.5674 -68.3634 155° Southeast  Level Estimated
11:39AM 18.5674 -68.3634 155° Southeast  Level Estimated
11:40AM 18.5674 -68.3634 155° Southeast  Level Estimated
11:41AM 18.5674 -68.3634 155° Southeast  Level Estimated
11:42AM 18.5674 -68.3634 155° Southeast  Level Estimated
11:43AM 18.5674 -68.3634 155° Southeast  Level Estimated
11:44AM 18.5674 -68.3634 155° Southeast  Level Estimated
11:45AM 18.5674 -68.3634 155° Southeast  Level Estimated
11:46AM 18.5674 -68.3634 155° Southeast  Level Estimated
11:47AM 18.5674 -68.3634 155° Southeast  Level Estimated
11:48AM 18.5674 -68.3634 155° Southeast  Level Estimated
11:49AM 18.5674 -68.3634 155° Southeast  Level Estimated
11:50AM 18.5674 -68.3634 155° Southeast  Level Estimated
11:51AM 18.5674 -68.3634 155° Southeast  Level Estimated
11:52AM 18.5674 -68.3634 155° Southeast  Level Estimated
11:53AM 18.5674 -68.3634 155° Southeast  Level Estimated